Portada
METAR-TAF:

METAR-TAF

Aeroports :

NWS Office

Majuro, Illes Marshall

latitud: 07-05N, longitud: 171-12E, altitud: 4 m

Observació

L'informe es va fer fa 36 minuts, a les 15:53 UTC
Vent 12 kt del Est/Sud-Est
Temperatura 25°C
Humitat 94%
Pressió 1006 hPa
Visibilitat: 16.1 km
Cel ennuvolat a una alçada de 1400 ft, Cumulus congestus.
Cel ennuvolat a una alçada de 4500 ft
Cel cobert a una alçada de 11000 ft
xàfecs de pluja

METAR: PKMR 181553Z 11012KT 10SM -SHRA BKN014TCU BKN045 OVC110 25/24 A2970 RMK TCU ALQDS SLP059 T02520239

Hora: 04:29 (16:29 UTC)


TAF: manca

Observacions i pronòstics meteorològics de més de 4000 aeroports (METAR i TAF).

Les estacions disponibles són els punts grocs i vermells al mapa.

Posi el ratolí al punt desitjat per veure el nom de l'estació.

Feu clic per veure les observacions i els pronòstics meteorològics.

Per canviar el mapa: feu clic els botons verds amb una creu de color negre per apropar; al botó verd amb un guió per allunyar la imatge; o en les fletxes verdes per a mapes adjacents.


METAR-TAF: